Scottish Airport Reports

Civil airfields updated at H+20 and H+50
RAF airfields updated at H+50 only

EGPD - Aberdeen
Distance from station: NNE 19mi, 31km
Updated: 20/04/2019 15:20
Clear
Clear
 Wind from SSE
Wind: SSE 12 mph , 19 km/h
Temperature: 21°C
Dew Point: 12°C
Humidity: 57%
Barometer: 1027 hPa
Clouds: Clear
Visibility: 6 miles , 10 km
2019/04/20 14:20 EGPD 201420Z AUTO 16010KT 9999 NCD 21/12 Q1027 NOSIG
EGPN - Dundee
Distance from station: SW 41mi, 66km
Updated: 20/04/2019 15:20
Clear
Clear
 Wind from calm
Wind: Calm
Temperature: 19°C
Dew Point: 10°C
Humidity: 56%
Barometer: 1028 hPa
Summary: Clear
Visibility: greater than 7 miles , 10 km
2019/04/20 14:20 EGPN 201420Z 00000KT CAVOK 19/10 Q1028
 
EGQS - RAF Lossiemouth
Distance from station: NNW 63mi, 102km
Updated: 20/04/2019 14:50
Light rain, Mostly cloudy
Light rain, Mostly cloudy
 Wind from NE
Wind: NE 5 mph , 7 km/h
Temperature: 16°C
Dew Point: 10°C
Humidity: 68%
Barometer: 1028 hPa
Summary: Light rain
Clouds: Mostly cloudy
Visibility: 6 miles , 10 km
Cloud details: Few Clouds 5000 ft
Mostly cloudy 9000 ft
2019/04/20 13:50 EGQS 201350Z 04004KT 9999 -RA FEW050 BKN090 16/10 Q1028 BLU NOSIG
EGPE - Inverness
Distance from station: WNW 73mi, 117km
Updated: 20/04/2019 15:20
Few Clouds
Few Clouds
 Wind from WSW
Wind: WSW 6 mph , 9 km/h
Temperature: 17°C
Dew Point: 11°C
Humidity: 68%
Barometer: 1028 hPa
Clouds: Few Clouds
Visibility: 6 miles , 10 km
Cloud details: Few Clouds 4000 ft
2019/04/20 14:20 EGPE 201420Z 25005KT 9999 FEW040 17/11 Q1028
 
EGPH - Edinburgh
Distance from station: SSW 77mi, 125km
Updated: 20/04/2019 15:20
Clear
Clear
 Wind from NNW
Wind: NNW 6 mph , 9 km/h
Temperature: 22°C
Dew Point: 9°C
Humidity: 44%
Barometer: 1028 hPa
Summary: Clear
Visibility: greater than 7 miles , 10 km
2019/04/20 14:20 EGPH 201420Z 34005KT CAVOK 22/09 Q1028
EGPC - Wick
Distance from station: NNW 107mi, 172km
Updated: 20/04/2019 15:20
Clear
Clear
 Wind from NNE
Wind: NNE 7 mph , 11 km/h
Temperature: 14°C
Dew Point: 9°C
Humidity: 72%
Barometer: 1029 hPa
Clouds: Clear
Visibility: 6 miles , 10 km
2019/04/20 14:20 EGPC 201420Z AUTO 02006KT 9999 NCD 14/09 Q1029
 
EGPF - Glasgow
Distance from station: SW 107mi, 172km
Updated: 20/04/2019 15:20
Clear
Clear
 Wind from WSW
Wind: WSW 8 mph , 13 km/h
Temperature: 20°C
Dew Point: 10°C
Humidity: 53%
Barometer: 1029 hPa
Clouds: Clear
Visibility: 6 miles , 10 km
2019/04/20 14:20 EGPF 201420Z AUTO 25007KT 210V280 9999 NCD 20/10 Q1029
EGPK - Prestwick
Distance from station: SW 130mi, 209km
Updated: 20/04/2019 15:20
Partly cloudy
Partly cloudy
 Wind from W
Wind: W 6 mph , 9 km/h
Temperature: 16°C
Dew Point: 8°C
Humidity: 59%
Barometer: 1030 hPa
Clouds: Partly cloudy
Visibility: 6 miles , 9 km
2019/04/20 14:20 EGPK 201420Z 28005KT 250V310 9000 NSC 16/08 Q1030
 
EGPA - Kirkwall, Orkney
Distance from station: N 140mi, 225km
Updated: 20/04/2019 15:20
Few Clouds
Few Clouds
 Wind from W
Wind: W 15 mph , 24 km/h
Temperature: 13°C
Dew Point: 8°C
Humidity: 72%
Barometer: 1029 hPa
Clouds: Few Clouds
Visibility: 6 miles , 10 km
Cloud details: Few Clouds 1600 ft
2019/04/20 14:20 EGPA 201420Z 28013KT 9999 FEW016 13/08 Q1029
EGPO - Stornoway, Outer Hebrides
Distance from station: WNW 169mi, 273km
Updated: 20/04/2019 15:20
Clear
Clear
 Wind from S
Wind: S 14 mph , 22 km/h
Temperature: 12°C
Dew Point: 9°C
Humidity: 82%
Barometer: 1028 hPa
Clouds: Clear
Visibility: 6 miles , 10 km
2019/04/20 14:20 EGPO 201420Z AUTO 19012KT 140V210 9999 NCD 12/09 Q1028
 
EGPI - Islay, Inner Hebrides
Distance from station: WSW 172mi, 276km
Updated: 20/04/2019 15:20
Clear
Clear
 Wind from WSW
Wind: WSW 9 mph , 15 km/h
Temperature: 12°C
Dew Point: 9°C
Humidity: 82%
Barometer: 1029 hPa
Clouds: Clear
Visibility: 6 miles , 10 km
2019/04/20 14:20 EGPI 201420Z AUTO 24008KT 9999 NCD 12/09 Q1029
EGPU - Tiree, Inner Hebrides
Distance from station: W 172mi, 276km
Updated: 20/04/2019 15:20
Overcast
Overcast
 Wind from SSE
Wind: SSE 6 mph , 9 km/h
Temperature: 10°C
Wind Chill: 9°C
Dew Point: 10°C
Humidity: 100%
Barometer: 1029 hPa
Clouds: Overcast
Visibility: 4 miles , 7 km
Cloud details: Overcast 400 ft
2019/04/20 14:20 EGPU 201420Z 16005KT 7000 3000NE OVC004 10/10 Q1029
 
EGPB - Sumburgh, Shetland
Distance from station: NNE 208mi, 332km
Updated: 20/04/2019 15:20
Few Clouds
Few Clouds
 Wind from W
Wind: W 13 mph , 20 km/h
Temperature: 10°C
Wind Chill: 7°C
Dew Point: 8°C
Humidity: 88%
Barometer: 1028 hPa
Clouds: Few Clouds
Visibility: 6 miles , 10 km
Cloud details: Few Clouds 1200 ft
2019/04/20 14:20 EGPB 201420Z 28011KT 9999 FEW012 10/08 Q1028
EGPM - Scatsa, Shetland
Distance from station: NNE 245mi, 392km
Updated: 20/04/2019 15:20
Few Clouds
Few Clouds
 Wind from WSW
Wind: WSW 23 mph , 37 km/h
Temperature: 11°C
Dew Point: 8°C
Humidity: 82%
Barometer: 1027 hPa
Clouds: Few Clouds
Visibility: 6 miles , 10 km
Cloud details: Few Clouds 1200 ft
2019/04/20 14:20 EGPM 201420Z AUTO 24020KT 9999 FEW012/// 11/08 Q1027
-->